sensor_id;sensor_type;location;lat;lon;timestamp;pressure;altitude;pressure_sealevel;temperature;humidity
65227;BME280;51805;49.012;12.104;2023-01-25T00:00:46;99413.69;;;21.91;46.72
65227;BME280;51805;49.012;12.104;2023-01-25T00:03:11;99428.13;;;21.96;46.83
65227;BME280;51805;49.012;12.104;2023-01-25T00:05:36;99425.91;;;21.93;46.44
65227;BME280;51805;49.012;12.104;2023-01-25T00:08:02;99418.25;;;21.90;46.72
65227;BME280;51805;49.012;12.104;2023-01-25T00:10:27;99416.03;;;21.87;46.65
65227;BME280;51805;49.012;12.104;2023-01-25T00:12:52;99402.66;;;21.81;46.69
65227;BME280;51805;49.012;12.104;2023-01-25T00:15:18;99387.72;;;21.67;46.73
65227;BME280;51805;49.012;12.104;2023-01-25T00:17:43;99420.41;;;21.88;46.56
65227;BME280;51805;49.012;12.104;2023-01-25T00:20:09;99426.78;;;21.82;46.75
65227;BME280;51805;49.012;12.104;2023-01-25T00:22:34;99401.09;;;21.73;46.79
65227;BME280;51805;49.012;12.104;2023-01-25T00:24:59;99413.72;;;21.79;46.77
65227;BME280;51805;49.012;12.104;2023-01-25T00:27:25;99424.31;;;21.81;46.77
65227;BME280;51805;49.012;12.104;2023-01-25T00:29:50;99419.69;;;21.81;46.92
65227;BME280;51805;49.012;12.104;2023-01-25T00:34:48;99415.94;;;21.82;46.69
65227;BME280;51805;49.012;12.104;2023-01-25T00:40:00;99405.25;;;21.76;46.80
65227;BME280;51805;49.012;12.104;2023-01-25T00:42:25;99372.09;;;21.57;46.75
65227;BME280;51805;49.012;12.104;2023-01-25T00:44:50;99398.78;;;21.77;47.04
65227;BME280;51805;49.012;12.104;2023-01-25T00:47:16;99394.75;;;21.68;46.86
65227;BME280;51805;49.012;12.104;2023-01-25T00:49:42;99399.84;;;21.76;46.72
65227;BME280;51805;49.012;12.104;2023-01-25T00:52:08;99410.66;;;21.76;46.90
65227;BME280;51805;49.012;12.104;2023-01-25T00:54:34;99403.59;;;21.75;46.97
65227;BME280;51805;49.012;12.104;2023-01-25T00:56:59;99348.47;;;21.41;46.79
65227;BME280;51805;49.012;12.104;2023-01-25T00:59:24;99369.63;;;21.56;46.92
65227;BME280;51805;49.012;12.104;2023-01-25T01:01:50;99401.56;;;21.70;46.87
65227;BME280;51805;49.012;12.104;2023-01-25T01:04:16;99380.81;;;21.59;46.79
65227;BME280;51805;49.012;12.104;2023-01-25T01:06:42;99391.88;;;21.58;46.81
65227;BME280;51805;49.012;12.104;2023-01-25T01:09:11;99376.31;;;21.53;47.08
65227;BME280;51805;49.012;12.104;2023-01-25T01:11:37;99391.03;;;21.57;46.80
65227;BME280;51805;49.012;12.104;2023-01-25T01:14:02;99365.53;;;21.41;46.92
65227;BME280;51805;49.012;12.104;2023-01-25T01:16:28;99404.19;;;21.65;46.98
65227;BME280;51805;49.012;12.104;2023-01-25T01:18:53;99404.69;;;21.62;46.94
65227;BME280;51805;49.012;12.104;2023-01-25T01:21:19;99405.16;;;21.59;47.06
65227;BME280;51805;49.012;12.104;2023-01-25T01:23:45;99400.44;;;21.55;47.06
65227;BME280;51805;49.012;12.104;2023-01-25T01:26:12;99358.38;;;21.24;47.08
65227;BME280;51805;49.012;12.104;2023-01-25T01:28:38;99415.97;;;21.59;47.01
65227;BME280;51805;49.012;12.104;2023-01-25T01:31:06;99421.81;;;21.56;47.04
65227;BME280;51805;49.012;12.104;2023-01-25T01:33:32;99406.00;;;21.48;46.80
65227;BME280;51805;49.012;12.104;2023-01-25T01:35:57;99415.25;;;21.52;47.05
65227;BME280;51805;49.012;12.104;2023-01-25T01:38:23;99415.03;;;21.54;47.10
65227;BME280;51805;49.012;12.104;2023-01-25T01:40:49;99411.47;;;21.53;46.92
65227;BME280;51805;49.012;12.104;2023-01-25T01:43:20;99364.38;;;21.26;46.89
65227;BME280;51805;49.012;12.104;2023-01-25T01:48:24;99408.22;;;21.51;47.10
65227;BME280;51805;49.012;12.104;2023-01-25T01:50:57;99385.66;;;21.34;46.94
65227;BME280;51805;49.012;12.104;2023-01-25T01:53:24;99398.00;;;21.41;47.02
65227;BME280;51805;49.012;12.104;2023-01-25T01:55:51;99398.47;;;21.38;47.03
65227;BME280;51805;49.012;12.104;2023-01-25T01:58:20;99362.03;;;21.18;47.16
65227;BME280;51805;49.012;12.104;2023-01-25T02:00:46;99401.53;;;21.42;46.88
65227;BME280;51805;49.012;12.104;2023-01-25T02:03:12;99417.03;;;21.47;47.18
65227;BME280;51805;49.012;12.104;2023-01-25T02:06:14;99407.50;;;21.44;47.03
65227;BME280;51805;49.012;12.104;2023-01-25T02:08:40;99405.28;;;21.41;47.06
65227;BME280;51805;49.012;12.104;2023-01-25T02:11:06;99405.63;;;21.33;47.13
65227;BME280;51805;49.012;12.104;2023-01-25T02:13:32;99395.28;;;21.30;47.17
65227;BME280;51805;49.012;12.104;2023-01-25T02:15:59;99375.56;;;21.18;46.99
65227;BME280;51805;49.012;12.104;2023-01-25T02:18:24;99381.91;;;21.23;47.14
65227;BME280;51805;49.012;12.104;2023-01-25T02:20:55;99403.53;;;21.35;47.10
65227;BME280;51805;49.012;12.104;2023-01-25T02:26:04;99408.94;;;21.35;47.20
65227;BME280;51805;49.012;12.104;2023-01-25T02:28:37;99384.25;;;21.20;47.11
65227;BME280;51805;49.012;12.104;2023-01-25T02:31:04;99401.75;;;21.29;47.09
65227;BME280;51805;49.012;12.104;2023-01-25T02:33:29;99379.31;;;21.17;47.03
65227;BME280;51805;49.012;12.104;2023-01-25T02:35:59;99402.38;;;21.31;47.21
65227;BME280;51805;49.012;12.104;2023-01-25T02:38:25;99402.84;;;21.28;47.28
65227;BME280;51805;49.012;12.104;2023-01-25T02:40:59;99377.56;;;21.11;47.12
65227;BME280;51805;49.012;12.104;2023-01-25T02:43:28;99416.34;;;21.28;47.29
65227;BME280;51805;49.012;12.104;2023-01-25T02:46:02;99407.19;;;21.29;47.23
65227;BME280;51805;49.012;12.104;2023-01-25T02:48:32;99353.47;;;20.98;47.07
65227;BME280;51805;49.012;12.104;2023-01-25T02:50:57;99393.09;;;21.15;47.08
65227;BME280;51805;49.012;12.104;2023-01-25T02:53:22;99402.72;;;21.23;47.40
65227;BME280;51805;49.012;12.104;2023-01-25T02:55:47;99394.94;;;21.15;47.31
65227;BME280;51805;49.012;12.104;2023-01-25T02:58:13;99393.09;;;21.15;47.21
65227;BME280;51805;49.012;12.104;2023-01-25T03:00:38;99375.91;;;21.10;47.26
65227;BME280;51805;49.012;12.104;2023-01-25T03:03:03;99398.13;;;21.12;47.39
65227;BME280;51805;49.012;12.104;2023-01-25T03:05:28;99395.66;;;21.10;47.16
65227;BME280;51805;49.012;12.104;2023-01-25T03:07:54;99397.19;;;21.18;47.25
65227;BME280;51805;49.012;12.104;2023-01-25T03:10:19;99397.41;;;21.16;47.29
65227;BME280;51805;49.012;12.104;2023-01-25T03:12:44;99359.31;;;20.95;47.21
65227;BME280;51805;49.012;12.104;2023-01-25T03:15:10;99384.25;;;21.08;47.17
65227;BME280;51805;49.012;12.104;2023-01-25T03:17:35;99334.19;;;20.83;47.26
65227;BME280;51805;49.012;12.104;2023-01-25T03:20:00;99366.75;;;20.99;47.31
65227;BME280;51805;49.012;12.104;2023-01-25T03:22:25;99353.91;;;20.95;47.30
65227;BME280;51805;49.012;12.104;2023-01-25T03:24:51;99359.81;;;21.03;47.34
65227;BME280;51805;49.012;12.104;2023-01-25T03:27:16;99340.28;;;20.90;47.05
65227;BME280;51805;49.012;12.104;2023-01-25T03:29:41;99359.22;;;21.01;47.30
65227;BME280;51805;49.012;12.104;2023-01-25T03:32:07;99377.34;;;21.12;47.29
65227;BME280;51805;49.012;12.104;2023-01-25T03:34:32;99359.47;;;21.00;47.40
65227;BME280;51805;49.012;12.104;2023-01-25T03:36:58;99350.28;;;21.01;47.25
65227;BME280;51805;49.012;12.104;2023-01-25T03:39:23;99370.97;;;21.07;47.26
65227;BME280;51805;49.012;12.104;2023-01-25T03:41:48;99369.94;;;21.08;47.14
65227;BME280;51805;49.012;12.104;2023-01-25T03:44:14;99337.56;;;20.90;47.19
65227;BME280;51805;49.012;12.104;2023-01-25T03:46:40;99349.72;;;20.99;47.36
65227;BME280;51805;49.012;12.104;2023-01-25T03:49:05;99367.47;;;21.06;47.31
65227;BME280;51805;49.012;12.104;2023-01-25T03:51:31;99353.06;;;20.94;47.13
65227;BME280;51805;49.012;12.104;2023-01-25T03:53:56;99325.94;;;20.78;47.22
65227;BME280;51805;49.012;12.104;2023-01-25T03:56:21;99346.88;;;20.94;47.09
65227;BME280;51805;49.012;12.104;2023-01-25T03:58:47;99362.16;;;21.00;47.27
65227;BME280;51805;49.012;12.104;2023-01-25T04:01:12;99329.84;;;20.82;47.34
65227;BME280;51805;49.012;12.104;2023-01-25T04:03:38;99337.81;;;20.88;47.29
65227;BME280;51805;49.012;12.104;2023-01-25T04:06:04;99348.91;;;20.98;47.21
65227;BME280;51805;49.012;12.104;2023-01-25T04:08:30;99334.53;;;20.86;47.23
65227;BME280;51805;49.012;12.104;2023-01-25T04:10:59;99326.78;;;20.78;47.39
65227;BME280;51805;49.012;12.104;2023-01-25T04:13:25;99337.56;;;20.90;47.25
65227;BME280;51805;49.012;12.104;2023-01-25T04:15:50;99336.53;;;20.91;47.37
65227;BME280;51805;49.012;12.104;2023-01-25T04:18:16;99343.09;;;20.95;47.44
65227;BME280;51805;49.012;12.104;2023-01-25T04:20:41;99316.31;;;20.82;47.38
65227;BME280;51805;49.012;12.104;2023-01-25T04:23:07;99331.59;;;20.88;47.62
65227;BME280;51805;49.012;12.104;2023-01-25T04:25:32;99333.97;;;20.96;47.75
65227;BME280;51805;49.012;12.104;2023-01-25T04:27:58;99306.00;;;20.79;47.82
65227;BME280;51805;49.012;12.104;2023-01-25T04:30:23;99294.94;;;20.69;47.87
65227;BME280;51805;49.012;12.104;2023-01-25T04:32:49;99305.53;;;20.82;47.60
65227;BME280;51805;49.012;12.104;2023-01-25T04:35:14;99316.19;;;20.88;47.95
65227;BME280;51805;49.012;12.104;2023-01-25T04:37:40;99305.06;;;20.85;47.79
65227;BME280;51805;49.012;12.104;2023-01-25T04:40:06;99288.59;;;20.75;48.15
65227;BME280;51805;49.012;12.104;2023-01-25T04:42:32;99303.38;;;20.84;47.87
65227;BME280;51805;49.012;12.104;2023-01-25T04:44:57;99288.59;;;20.75;47.97
65227;BME280;51805;49.012;12.104;2023-01-25T04:47:22;99296.47;;;20.76;48.01
65227;BME280;51805;49.012;12.104;2023-01-25T04:49:48;99266.75;;;20.65;48.02
65227;BME280;51805;49.012;12.104;2023-01-25T04:52:13;99313.72;;;20.87;48.11
65227;BME280;51805;49.012;12.104;2023-01-25T04:54:38;99267.22;;;20.62;48.00
65227;BME280;51805;49.012;12.104;2023-01-25T04:57:04;99292.72;;;20.77;48.06
65227;BME280;51805;49.012;12.104;2023-01-25T04:59:29;99266.63;;;20.60;48.10
65227;BME280;51805;49.012;12.104;2023-01-25T05:01:54;99290.25;;;20.76;48.18
65227;BME280;51805;49.012;12.104;2023-01-25T05:04:19;99302.69;;;20.77;48.23
65227;BME280;51805;49.012;12.104;2023-01-25T05:06:45;99276.25;;;20.67;48.28
65227;BME280;51805;49.012;12.104;2023-01-25T05:09:10;99254.31;;;20.52;48.20
65227;BME280;51805;49.012;12.104;2023-01-25T05:11:35;99250.53;;;20.53;47.90
65227;BME280;51805;49.012;12.104;2023-01-25T05:14:00;99278.25;;;20.72;48.31
65227;BME280;51805;49.012;12.104;2023-01-25T05:16:26;99301.16;;;20.81;48.31
65227;BME280;51805;49.012;12.104;2023-01-25T05:18:53;99263.69;;;20.61;48.22
65227;BME280;51805;49.012;12.104;2023-01-25T05:21:18;99230.94;;;20.46;48.29
65227;BME280;51805;49.012;12.104;2023-01-25T05:23:44;99267.56;;;20.65;48.42
65227;BME280;51805;49.012;12.104;2023-01-25T05:26:09;99205.34;;;20.26;48.41
65227;BME280;51805;49.012;12.104;2023-01-25T05:28:34;99276.63;;;20.71;48.47
65227;BME280;51805;49.012;12.104;2023-01-25T05:31:03;99290.94;;;20.83;48.44
65227;BME280;51805;49.012;12.104;2023-01-25T05:33:28;99276.16;;;20.74;48.24
65227;BME280;51805;49.012;12.104;2023-01-25T05:35:53;99241.16;;;20.56;48.32
65227;BME280;51805;49.012;12.104;2023-01-25T05:38:18;99223.09;;;20.45;48.25
65227;BME280;51805;49.012;12.104;2023-01-25T05:40:44;99282.59;;;20.84;48.27
65227;BME280;51805;49.012;12.104;2023-01-25T05:43:09;99241.25;;;20.61;48.12
65227;BME280;51805;49.012;12.104;2023-01-25T05:45:34;99263.56;;;20.79;48.22
65227;BME280;51805;49.012;12.104;2023-01-25T05:48:00;99265.47;;;20.79;48.16
65227;BME280;51805;49.012;12.104;2023-01-25T05:50:25;99273.78;;;20.89;48.25
65227;BME280;51805;49.012;12.104;2023-01-25T05:52:51;99247.59;;;20.78;48.18
65227;BME280;51805;49.012;12.104;2023-01-25T05:55:16;99226.81;;;20.67;48.12
65227;BME280;51805;49.012;12.104;2023-01-25T05:57:42;99241.94;;;20.79;47.89
65227;BME280;51805;49.012;12.104;2023-01-25T06:00:09;99229.38;;;20.73;48.02
65227;BME280;51805;49.012;12.104;2023-01-25T06:02:34;99240.91;;;20.80;47.86
65227;BME280;51805;49.012;12.104;2023-01-25T06:04:59;99265.34;;;20.97;47.92
65227;BME280;51805;49.012;12.104;2023-01-25T06:07:25;99220.94;;;20.70;47.84
65227;BME280;51805;49.012;12.104;2023-01-25T06:09:50;99269.22;;;21.01;47.89
65227;BME280;51805;49.012;12.104;2023-01-25T06:12:19;99267.34;;;21.01;47.87
65227;BME280;51805;49.012;12.104;2023-01-25T06:14:44;99245.69;;;20.90;47.66
65227;BME280;51805;49.012;12.104;2023-01-25T06:17:09;99268.66;;;20.99;47.66
65227;BME280;51805;49.012;12.104;2023-01-25T06:19:35;99255.13;;;20.99;47.76
65227;BME280;51805;49.012;12.104;2023-01-25T06:22:00;99235.94;;;20.89;47.66
65227;BME280;51805;49.012;12.104;2023-01-25T06:24:25;99238.41;;;20.90;47.75
65227;BME280;51805;49.012;12.104;2023-01-25T06:26:51;99254.50;;;21.08;47.78
65227;BME280;51805;49.012;12.104;2023-01-25T06:29:16;99249.25;;;21.02;47.87
65227;BME280;51805;49.012;12.104;2023-01-25T06:31:41;99253.09;;;21.06;47.97
65227;BME280;51805;49.012;12.104;2023-01-25T06:34:06;99253.09;;;21.06;47.71
65227;BME280;51805;49.012;12.104;2023-01-25T06:36:32;99249.34;;;21.07;47.76
65227;BME280;51805;49.012;12.104;2023-01-25T06:38:57;99272.13;;;21.11;47.72
65227;BME280;51805;49.012;12.104;2023-01-25T06:41:22;99265.06;;;21.10;47.63
65227;BME280;51805;49.012;12.104;2023-01-25T06:43:51;99270.47;;;21.10;47.50
65227;BME280;51805;49.012;12.104;2023-01-25T06:46:17;99269.31;;;21.17;47.40
65227;BME280;51805;49.012;12.104;2023-01-25T06:48:42;99262.47;;;21.15;47.49
65227;BME280;51805;49.012;12.104;2023-01-25T06:51:10;99272.56;;;21.19;47.48
65227;BME280;51805;49.012;12.104;2023-01-25T06:53:38;99265.53;;;21.18;47.30
65227;BME280;51805;49.012;12.104;2023-01-25T06:56:09;99266.94;;;21.21;47.57
65227;BME280;51805;49.012;12.104;2023-01-25T06:58:35;99276.22;;;21.25;47.36
65227;BME280;51805;49.012;12.104;2023-01-25T07:01:02;99272.69;;;21.24;47.53
65227;BME280;51805;49.012;12.104;2023-01-25T07:03:29;99270.56;;;21.26;47.74
65227;BME280;51805;49.012;12.104;2023-01-25T07:05:59;99247.91;;;21.16;47.39
65227;BME280;51805;49.012;12.104;2023-01-25T07:08:25;99266.56;;;21.29;47.34
65227;BME280;51805;49.012;12.104;2023-01-25T07:11:02;99272.88;;;21.34;47.36
65227;BME280;51805;49.012;12.104;2023-01-25T07:13:30;99265.59;;;21.35;47.45
65227;BME280;51805;49.012;12.104;2023-01-25T07:16:00;99263.72;;;21.35;47.39
65227;BME280;51805;49.012;12.104;2023-01-25T07:18:28;99267.94;;;21.31;47.27
65227;BME280;51805;49.012;12.104;2023-01-25T07:20:53;99244.34;;;21.27;47.32
65227;BME280;51805;49.012;12.104;2023-01-25T07:23:19;99264.63;;;21.41;47.14
65227;BME280;51805;49.012;12.104;2023-01-25T07:25:46;99271.94;;;21.40;47.14
65227;BME280;51805;49.012;12.104;2023-01-25T07:28:12;99266.53;;;21.40;47.21
65227;BME280;51805;49.012;12.104;2023-01-25T07:30:38;99254.06;;;21.39;47.07
65227;BME280;51805;49.012;12.104;2023-01-25T07:33:03;99249.59;;;21.45;46.92
65227;BME280;51805;49.012;12.104;2023-01-25T07:35:30;99247.75;;;21.34;47.01
65227;BME280;51805;49.012;12.104;2023-01-25T07:37:55;99253.91;;;21.46;47.05
65227;BME280;51805;49.012;12.104;2023-01-25T07:40:20;99208.63;;;21.25;46.98
65227;BME280;51805;49.012;12.104;2023-01-25T07:42:46;99246.00;;;21.56;46.77
65227;BME280;51805;49.012;12.104;2023-01-25T07:45:11;99226.38;;;21.49;46.80
65227;BME280;51805;49.012;12.104;2023-01-25T07:47:36;99225.91;;;21.52;46.61
65227;BME280;51805;49.012;12.104;2023-01-25T07:50:02;99237.97;;;21.61;46.51
65227;BME280;51805;49.012;12.104;2023-01-25T07:58:24;99249.19;;;21.81;46.29
65227;BME280;51805;49.012;12.104;2023-01-25T08:00:49;99256.59;;;21.86;46.52
65227;BME280;51805;49.012;12.104;2023-01-25T08:03:14;99229.56;;;21.74;46.39
65227;BME280;51805;49.012;12.104;2023-01-25T08:05:43;99243.88;;;21.86;46.41
65227;BME280;51805;49.012;12.104;2023-01-25T08:08:08;99236.25;;;21.83;46.54
65227;BME280;51805;49.012;12.104;2023-01-25T08:10:34;99246.69;;;21.91;46.36
65227;BME280;51805;49.012;12.104;2023-01-25T08:12:59;99192.13;;;21.55;46.32
65227;BME280;51805;49.012;12.104;2023-01-25T08:15:24;99191.66;;;21.58;46.36
65227;BME280;51805;49.012;12.104;2023-01-25T08:17:49;99236.34;;;21.88;46.49
65227;BME280;51805;49.012;12.104;2023-01-25T08:20:15;99251.91;;;21.98;46.36
65227;BME280;51805;49.012;12.104;2023-01-25T08:22:40;99253.09;;;22.02;46.48
65227;BME280;51805;49.012;12.104;2023-01-25T08:25:06;99240.53;;;21.96;46.32
65227;BME280;51805;49.012;12.104;2023-01-25T08:27:31;99244.13;;;22.01;46.42
65227;BME280;51805;49.012;12.104;2023-01-25T08:29:59;99252.34;;;22.06;46.40
65227;BME280;51805;49.012;12.104;2023-01-25T08:32:25;99248.50;;;22.02;46.61
65227;BME280;51805;49.012;12.104;2023-01-25T08:34:50;99229.28;;;21.87;46.35
65227;BME280;51805;49.012;12.104;2023-01-25T08:37:15;99253.94;;;22.02;46.54
65227;BME280;51805;49.012;12.104;2023-01-25T08:39:41;99240.88;;;21.99;46.54
65227;BME280;51805;49.012;12.104;2023-01-25T08:42:06;99249.66;;;22.06;46.65
65227;BME280;51805;49.012;12.104;2023-01-25T08:44:31;99182.16;;;21.72;46.59
65227;BME280;51805;49.012;12.104;2023-01-25T08:46:59;99238.91;;;22.11;46.78
65227;BME280;51805;49.012;12.104;2023-01-25T08:49:24;99225.19;;;22.01;46.99
65227;BME280;51805;49.012;12.104;2023-01-25T08:51:49;99246.53;;;22.14;46.88
65227;BME280;51805;49.012;12.104;2023-01-25T08:54:21;99229.31;;;22.04;47.04
65227;BME280;51805;49.012;12.104;2023-01-25T08:56:46;99238.97;;;22.16;47.17
65227;BME280;51805;49.012;12.104;2023-01-25T08:59:12;99245.56;;;22.20;47.25
65227;BME280;51805;49.012;12.104;2023-01-25T09:01:38;99234.06;;;22.13;47.29
65227;BME280;51805;49.012;12.104;2023-01-25T09:04:03;99212.00;;;21.88;45.63
65227;BME280;51805;49.012;12.104;2023-01-25T09:06:29;99229.47;;;21.69;44.44
65227;BME280;51805;49.012;12.104;2023-01-25T09:08:54;99205.28;;;21.06;44.45
65227;BME280;51805;49.012;12.104;2023-01-25T09:11:25;99172.47;;;20.63;43.19
65227;BME280;51805;49.012;12.104;2023-01-25T09:13:51;99220.22;;;20.97;42.26
65227;BME280;51805;49.012;12.104;2023-01-25T09:16:18;99164.75;;;20.32;42.17
65227;BME280;51805;49.012;12.104;2023-01-25T09:18:55;99154.72;;;20.10;41.65
65227;BME280;51805;49.012;12.104;2023-01-25T09:21:21;99171.38;;;20.07;41.10
65227;BME280;51805;49.012;12.104;2023-01-25T09:23:51;99182.31;;;20.12;41.63
65227;BME280;51805;49.012;12.104;2023-01-25T09:26:17;99222.38;;;20.38;40.63
65227;BME280;51805;49.012;12.104;2023-01-25T09:28:46;99139.78;;;19.61;40.54
65227;BME280;51805;49.012;12.104;2023-01-25T09:31:11;99198.97;;;19.97;40.60
65227;BME280;51805;49.012;12.104;2023-01-25T09:33:43;99205.13;;;20.16;40.19
65227;BME280;51805;49.012;12.104;2023-01-25T09:36:44;99218.84;;;20.26;39.93
65227;BME280;51805;49.012;12.104;2023-01-25T09:39:57;99212.22;;;19.99;39.70
65227;BME280;51805;49.012;12.104;2023-01-25T09:48:52;99212.94;;;20.06;39.11
65227;BME280;51805;49.012;12.104;2023-01-25T10:06:52;99125.28;;;20.54;40.09
65227;BME280;51805;49.012;12.104;2023-01-25T10:15:59;99116.09;;;20.95;40.34
65227;BME280;51805;49.012;12.104;2023-01-25T10:26:55;99178.22;;;21.63;40.71
65227;BME280;51805;49.012;12.104;2023-01-25T10:29:29;99180.19;;;21.67;40.92
65227;BME280;51805;49.012;12.104;2023-01-25T10:32:17;99172.16;;;21.72;40.99
65227;BME280;51805;49.012;12.104;2023-01-25T10:34:47;99167.91;;;21.76;41.06
65227;BME280;51805;49.012;12.104;2023-01-25T10:37:15;99163.91;;;21.79;40.79
65227;BME280;51805;49.012;12.104;2023-01-25T10:40:05;99160.72;;;21.82;41.05
65227;BME280;51805;49.012;12.104;2023-01-25T10:42:44;99155.91;;;21.84;41.15
65227;BME280;51805;49.012;12.104;2023-01-25T10:45:13;99148.06;;;21.87;41.04
65227;BME280;51805;49.012;12.104;2023-01-25T10:47:46;99136.47;;;21.87;41.30
65227;BME280;51805;49.012;12.104;2023-01-25T10:53:03;99138.19;;;21.93;41.41
65227;BME280;51805;49.012;12.104;2023-01-25T10:55:28;99132.03;;;21.97;41.63
65227;BME280;51805;49.012;12.104;2023-01-25T10:57:55;99124.94;;;21.96;41.73
65227;BME280;51805;49.012;12.104;2023-01-25T11:00:37;99122.81;;;21.98;41.66
65227;BME280;51805;49.012;12.104;2023-01-25T11:03:04;99122.31;;;22.01;41.70
65227;BME280;51805;49.012;12.104;2023-01-25T11:05:35;99115.59;;;22.04;41.82
65227;BME280;51805;49.012;12.104;2023-01-25T11:10:44;99114.28;;;22.06;41.93
65227;BME280;51805;49.012;12.104;2023-01-25T11:18:13;99102.88;;;22.04;41.99
65227;BME280;51805;49.012;12.104;2023-01-25T11:20:40;99096.97;;;22.07;42.07
65227;BME280;51805;49.012;12.104;2023-01-25T11:23:20;99095.91;;;22.08;42.12
65227;BME280;51805;49.012;12.104;2023-01-25T11:25:45;99091.28;;;22.09;42.22
65227;BME280;51805;49.012;12.104;2023-01-25T11:28:21;99086.72;;;22.09;42.29
65227;BME280;51805;49.012;12.104;2023-01-25T11:30:51;99082.91;;;22.10;42.39
65227;BME280;51805;49.012;12.104;2023-01-25T11:33:19;99068.88;;;22.13;42.34
65227;BME280;51805;49.012;12.104;2023-01-25T11:41:41;99050.50;;;22.15;42.24
65227;BME280;51805;49.012;12.104;2023-01-25T11:50:32;99049.59;;;22.26;42.39
65227;BME280;51805;49.012;12.104;2023-01-25T11:55:48;99040.94;;;22.29;42.67
65227;BME280;51805;49.012;12.104;2023-01-25T11:58:28;99039.06;;;22.30;42.67
65227;BME280;51805;49.012;12.104;2023-01-25T12:01:20;99037.50;;;22.34;42.70
65227;BME280;51805;49.012;12.104;2023-01-25T12:04:13;99020.97;;;22.35;42.71
65227;BME280;51805;49.012;12.104;2023-01-25T12:07:02;99012.34;;;22.38;42.68
65227;BME280;51805;49.012;12.104;2023-01-25T12:12:30;99008.81;;;22.38;42.84
65227;BME280;51805;49.012;12.104;2023-01-25T12:17:40;98995.84;;;22.40;43.08
65227;BME280;51805;49.012;12.104;2023-01-25T12:23:34;98986.34;;;22.37;43.27
65227;BME280;51805;49.012;12.104;2023-01-25T12:28:56;98985.34;;;22.43;43.28
65227;BME280;51805;49.012;12.104;2023-01-25T12:31:25;98982.38;;;22.45;43.34
65227;BME280;51805;49.012;12.104;2023-01-25T12:33:58;98974.00;;;22.46;43.15
65227;BME280;51805;49.012;12.104;2023-01-25T12:36:31;98966.44;;;22.48;43.30
65227;BME280;51805;49.012;12.104;2023-01-25T12:49:41;98954.59;;;22.54;43.32
65227;BME280;51805;49.012;12.104;2023-01-25T12:52:22;98948.09;;;22.55;43.42
65227;BME280;51805;49.012;12.104;2023-01-25T12:54:49;98944.88;;;22.58;43.33
65227;BME280;51805;49.012;12.104;2023-01-25T13:05:28;98927.00;;;22.57;43.53
65227;BME280;51805;49.012;12.104;2023-01-25T13:10:32;98922.13;;;22.59;43.58
65227;BME280;51805;49.012;12.104;2023-01-25T13:13:02;98914.81;;;22.60;43.53
65227;BME280;51805;49.012;12.104;2023-01-25T13:15:42;98904.56;;;22.62;43.43
65227;BME280;51805;49.012;12.104;2023-01-25T13:20:53;98898.88;;;22.63;43.59
65227;BME280;51805;49.012;12.104;2023-01-25T13:23:30;98891.31;;;22.65;43.76
65227;BME280;51805;49.012;12.104;2023-01-25T13:28:57;98888.88;;;22.64;43.63
65227;BME280;51805;49.012;12.104;2023-01-25T13:34:08;98889.97;;;22.68;43.81
65227;BME280;51805;49.012;12.104;2023-01-25T13:44:41;98869.13;;;22.68;44.00
65227;BME280;51805;49.012;12.104;2023-01-25T13:47:11;98869.91;;;22.69;43.69
65227;BME280;51805;49.012;12.104;2023-01-25T13:49:43;98865.91;;;22.71;43.91
65227;BME280;51805;49.012;12.104;2023-01-25T13:52:17;98861.00;;;22.68;43.90
65227;BME280;51805;49.012;12.104;2023-01-25T13:54:44;98863.69;;;22.68;43.95
65227;BME280;51805;49.012;12.104;2023-01-25T13:57:14;98857.19;;;22.69;44.04
65227;BME280;51805;49.012;12.104;2023-01-25T13:59:43;98865.31;;;22.69;44.06
65227;BME280;51805;49.012;12.104;2023-01-25T14:02:19;98858.81;;;22.70;44.09
65227;BME280;51805;49.012;12.104;2023-01-25T14:04:47;98849.06;;;22.69;44.17
65227;BME280;51805;49.012;12.104;2023-01-25T14:09:41;98850.09;;;22.63;44.28
65227;BME280;51805;49.012;12.104;2023-01-25T14:12:08;98835.19;;;22.34;41.05
65227;BME280;51805;49.012;12.104;2023-01-25T14:14:34;98839.19;;;21.57;40.38
65227;BME280;51805;49.012;12.104;2023-01-25T14:19:54;98836.13;;;20.94;40.00
65227;BME280;51805;49.012;12.104;2023-01-25T14:22:27;98842.75;;;21.03;39.22
65227;BME280;51805;49.012;12.104;2023-01-25T14:25:20;98844.00;;;20.79;39.10
65227;BME280;51805;49.012;12.104;2023-01-25T14:27:49;98855.69;;;20.68;38.94
65227;BME280;51805;49.012;12.104;2023-01-25T14:30:20;98848.97;;;20.87;38.08
65227;BME280;51805;49.012;12.104;2023-01-25T14:32:48;98848.81;;;20.77;37.49
65227;BME280;51805;49.012;12.104;2023-01-25T14:37:54;98842.94;;;20.80;36.73
65227;BME280;51805;49.012;12.104;2023-01-25T14:40:21;98851.44;;;20.55;36.92
65227;BME280;51805;49.012;12.104;2023-01-25T14:42:48;98842.50;;;20.55;37.04
65227;BME280;51805;49.012;12.104;2023-01-25T14:45:14;98833.25;;;20.67;36.18
65227;BME280;51805;49.012;12.104;2023-01-25T14:47:39;98831.56;;;20.61;36.34
65227;BME280;51805;49.012;12.104;2023-01-25T14:50:34;98820.97;;;20.76;35.46
65227;BME280;51805;49.012;12.104;2023-01-25T14:53:20;98824.34;;;20.06;36.01
65227;BME280;51805;49.012;12.104;2023-01-25T14:55:48;98817.84;;;19.90;36.81
65227;BME280;51805;49.012;12.104;2023-01-25T14:58:17;98821.03;;;20.15;36.23
65227;BME280;51805;49.012;12.104;2023-01-25T15:00:54;98823.75;;;20.15;36.50
65227;BME280;51805;49.012;12.104;2023-01-25T15:03:21;98822.88;;;20.43;35.54
65227;BME280;51805;49.012;12.104;2023-01-25T15:05:47;98811.56;;;20.62;35.20
65227;BME280;51805;49.012;12.104;2023-01-25T15:08:15;98807.31;;;20.33;35.47
65227;BME280;51805;49.012;12.104;2023-01-25T15:10:51;98812.81;;;20.38;35.81